createdAt,value
2017-03-23T00:00:29.451Z,1013.99
2017-03-23T00:01:10.100Z,1013.97
2017-03-23T00:01:50.786Z,1014.01
2017-03-23T00:02:31.463Z,1013.99
2017-03-23T00:03:12.144Z,1013.98
2017-03-23T00:03:52.768Z,1014.03
2017-03-23T00:04:33.555Z,1014.02
2017-03-23T00:05:14.366Z,1014.04
2017-03-23T00:05:55.075Z,1014.07
2017-03-23T00:06:35.729Z,1014.06
2017-03-23T00:08:28.394Z,1013.98
2017-03-23T00:09:09.029Z,1014.05
2017-03-23T00:09:49.667Z,1014.08
2017-03-23T00:10:30.344Z,1014.01
2017-03-23T00:11:11.013Z,1014.03
2017-03-23T00:11:51.662Z,1014.04
2017-03-23T00:12:32.376Z,1014.03
2017-03-23T00:13:13.005Z,1014.07
2017-03-23T00:13:53.647Z,1014.06
2017-03-23T00:14:34.336Z,1014.05
2017-03-23T00:15:15.017Z,1014.06
2017-03-23T00:15:55.733Z,1014
2017-03-23T00:16:36.417Z,1014.02
2017-03-23T00:17:17.122Z,1014.02
2017-03-23T00:17:57.822Z,1013.99
2017-03-23T00:18:38.563Z,1013.97
2017-03-23T00:19:19.178Z,1013.97
2017-03-23T00:20:00.010Z,1013.92
2017-03-23T00:20:40.641Z,1013.94
2017-03-23T00:21:21.311Z,1013.98
2017-03-23T00:22:01.991Z,1013.98
2017-03-23T00:22:42.622Z,1013.96
2017-03-23T00:23:23.316Z,1013.93
2017-03-23T00:24:04.012Z,1013.92
2017-03-23T00:24:44.638Z,1013.93
2017-03-23T00:25:25.286Z,1013.92
2017-03-23T00:26:05.981Z,1013.93
2017-03-23T00:26:46.613Z,1013.97
2017-03-23T00:27:27.334Z,1013.94
2017-03-23T00:28:08.048Z,1013.91
2017-03-23T00:28:48.700Z,1013.97
2017-03-23T00:29:29.386Z,1013.91
2017-03-23T00:30:10.076Z,1013.89
2017-03-23T00:30:50.732Z,1013.84
2017-03-23T00:31:31.421Z,1013.84
2017-03-23T00:32:12.072Z,1013.87
2017-03-23T00:32:52.686Z,1013.88
2017-03-23T00:33:33.314Z,1013.9
2017-03-23T00:34:13.998Z,1013.89
2017-03-23T00:34:54.701Z,1013.89
2017-03-23T00:35:35.582Z,1013.83
2017-03-23T00:36:16.233Z,1013.84
2017-03-23T00:36:56.952Z,1013.82
2017-03-23T00:37:37.714Z,1013.83
2017-03-23T00:38:18.485Z,1013.86
2017-03-23T00:38:59.158Z,1013.78
2017-03-23T00:39:39.856Z,1013.8
2017-03-23T00:40:20.530Z,1013.82
2017-03-23T00:41:01.193Z,1013.81
2017-03-23T00:41:41.843Z,1013.85
2017-03-23T00:42:22.528Z,1013.82
2017-03-23T00:43:03.191Z,1013.81
2017-03-23T00:43:43.850Z,1013.8
2017-03-23T00:44:24.744Z,1013.8
2017-03-23T00:45:05.393Z,1013.81
2017-03-23T00:45:46.004Z,1013.83
2017-03-23T00:46:26.690Z,1013.81
2017-03-23T00:47:07.317Z,1013.79
2017-03-23T00:47:47.991Z,1013.8
2017-03-23T00:48:28.676Z,1013.76
2017-03-23T00:49:09.379Z,1013.78
2017-03-23T00:49:50.085Z,1013.72
2017-03-23T00:50:30.736Z,1013.75
2017-03-23T00:51:11.353Z,1013.73
2017-03-23T00:51:52.008Z,1013.77
2017-03-23T00:52:32.696Z,1013.74
2017-03-23T00:53:13.433Z,1013.75
2017-03-23T00:53:54.087Z,1013.77
2017-03-23T00:54:34.705Z,1013.77
2017-03-23T00:55:15.379Z,1013.75
2017-03-23T00:55:56.057Z,1013.75
2017-03-23T00:56:36.737Z,1013.82
2017-03-23T00:57:17.341Z,1013.81
2017-03-23T00:57:58.008Z,1013.8
2017-03-23T00:58:38.686Z,1013.81
2017-03-23T00:59:19.322Z,1013.86
2017-03-23T00:59:59.999Z,1013.83
2017-03-23T01:00:40.641Z,1013.87
2017-03-23T01:01:21.317Z,1013.87
2017-03-23T01:02:02.001Z,1013.87
2017-03-23T01:02:42.679Z,1013.88
2017-03-23T01:03:23.448Z,1013.82
2017-03-23T01:04:04.173Z,1013.92
2017-03-23T01:04:44.899Z,1013.91
2017-03-23T01:05:25.535Z,1013.88
2017-03-23T01:06:06.208Z,1013.92
2017-03-23T01:06:46.901Z,1013.91
2017-03-23T01:07:27.575Z,1013.91
2017-03-23T01:08:08.199Z,1013.85
2017-03-23T01:08:48.842Z,1013.85
2017-03-23T01:09:29.503Z,1013.83
2017-03-23T01:10:10.113Z,1013.81
2017-03-23T01:10:50.744Z,1013.85
2017-03-23T01:11:31.474Z,1013.85
2017-03-23T01:12:12.195Z,1013.84
2017-03-23T01:12:52.867Z,1013.86
2017-03-23T01:13:33.548Z,1013.82
2017-03-23T01:14:14.239Z,1013.79
2017-03-23T01:14:54.969Z,1013.87
2017-03-23T01:15:35.629Z,1013.8
2017-03-23T01:16:16.268Z,1013.85
2017-03-23T01:16:56.943Z,1013.86
2017-03-23T01:17:37.627Z,1013.8
2017-03-23T01:18:18.218Z,1013.89
2017-03-23T01:18:58.984Z,1013.88
2017-03-23T01:19:39.669Z,1013.86
2017-03-23T01:20:20.346Z,1013.89
2017-03-23T01:21:01.018Z,1013.86
2017-03-23T01:21:41.705Z,1013.91
2017-03-23T01:22:22.361Z,1013.95
2017-03-23T01:23:03.104Z,1013.92
2017-03-23T01:23:43.747Z,1013.85
2017-03-23T01:24:24.530Z,1013.89
2017-03-23T01:25:05.200Z,1013.84
2017-03-23T01:25:45.870Z,1013.84
2017-03-23T01:26:26.474Z,1013.81
2017-03-23T01:27:07.175Z,1013.85
2017-03-23T01:27:47.899Z,1013.9
2017-03-23T01:28:28.548Z,1013.87
2017-03-23T01:29:09.188Z,1013.85
2017-03-23T01:29:49.860Z,1013.82
2017-03-23T01:30:30.538Z,1013.83
2017-03-23T01:31:11.215Z,1013.84
2017-03-23T01:31:51.808Z,1013.79
2017-03-23T01:32:32.456Z,1013.83
2017-03-23T01:33:13.078Z,1013.82
2017-03-23T01:33:53.718Z,1013.81
2017-03-23T01:34:34.348Z,1013.72
2017-03-23T01:35:15.104Z,1013.78
2017-03-23T01:35:55.703Z,1013.78
2017-03-23T01:36:36.304Z,1013.73
2017-03-23T01:37:16.976Z,1013.76
2017-03-23T01:37:57.612Z,1013.81
2017-03-23T01:38:38.245Z,1013.76
2017-03-23T01:39:18.924Z,1013.76
2017-03-23T01:39:59.580Z,1013.72
2017-03-23T01:40:40.190Z,1013.73
2017-03-23T01:41:20.887Z,1013.72
2017-03-23T01:42:01.510Z,1013.72
2017-03-23T01:42:42.178Z,1013.7
2017-03-23T01:43:22.852Z,1013.76
2017-03-23T01:44:03.510Z,1013.73
2017-03-23T01:44:44.176Z,1013.66
2017-03-23T01:45:24.819Z,1013.64
2017-03-23T01:46:05.456Z,1013.68
2017-03-23T01:46:46.152Z,1013.68
2017-03-23T01:47:26.798Z,1013.66
2017-03-23T01:48:07.469Z,1013.66
2017-03-23T01:48:48.124Z,1013.65
2017-03-23T01:49:28.842Z,1013.63
2017-03-23T01:50:09.480Z,1013.68
2017-03-23T01:50:50.240Z,1013.62
2017-03-23T01:51:30.975Z,1013.64
2017-03-23T01:52:11.653Z,1013.59
2017-03-23T01:52:52.377Z,1013.62
2017-03-23T01:53:33.018Z,1013.6
2017-03-23T01:54:13.696Z,1013.64
2017-03-23T01:54:54.423Z,1013.63
2017-03-23T01:55:35.062Z,1013.64
2017-03-23T01:56:22.572Z,1013.63
2017-03-23T01:57:03.206Z,1013.64
2017-03-23T01:57:43.887Z,1013.63
2017-03-23T01:58:24.501Z,1013.61
2017-03-23T01:59:05.196Z,1013.63
2017-03-23T01:59:45.879Z,1013.68
2017-03-23T02:00:26.556Z,1013.6
2017-03-23T02:01:07.286Z,1013.58
2017-03-23T02:01:47.968Z,1013.6
2017-03-23T02:02:28.611Z,1013.62
2017-03-23T02:03:09.328Z,1013.57
2017-03-23T02:03:49.972Z,1013.59
2017-03-23T02:04:30.683Z,1013.6
2017-03-23T02:05:11.372Z,1013.65
2017-03-23T02:05:51.996Z,1013.6
2017-03-23T02:06:32.682Z,1013.62
2017-03-23T02:07:13.297Z,1013.62
2017-03-23T02:07:53.959Z,1013.56
2017-03-23T02:08:34.693Z,1013.57
2017-03-23T02:09:15.354Z,1013.64
2017-03-23T02:09:55.998Z,1013.62
2017-03-23T02:10:36.634Z,1013.54
2017-03-23T02:11:17.251Z,1013.62
2017-03-23T02:11:57.933Z,1013.57
2017-03-23T02:12:38.613Z,1013.61
2017-03-23T02:13:19.367Z,1013.67
2017-03-23T02:13:59.986Z,1013.63
2017-03-23T02:14:40.574Z,1013.64
2017-03-23T02:15:21.281Z,1013.61
2017-03-23T02:16:01.942Z,1013.64
2017-03-23T02:16:42.565Z,1013.62
2017-03-23T02:17:23.286Z,1013.57
2017-03-23T02:18:04.013Z,1013.62
2017-03-23T02:18:44.638Z,1013.63
2017-03-23T02:19:25.265Z,1013.63
2017-03-23T02:20:05.956Z,1013.61
2017-03-23T02:20:46.585Z,1013.62
2017-03-23T02:21:27.222Z,1013.61
2017-03-23T02:22:07.863Z,1013.59
2017-03-23T02:22:48.515Z,1013.59
2017-03-23T02:23:29.220Z,1013.57
2017-03-23T02:24:09.841Z,1013.57
2017-03-23T02:24:50.486Z,1013.56
2017-03-23T02:25:31.116Z,1013.57
2017-03-23T02:26:11.778Z,1013.56
2017-03-23T02:26:52.437Z,1013.57
2017-03-23T02:27:33.105Z,1013.51
2017-03-23T02:28:13.743Z,1013.49
2017-03-23T02:28:54.420Z,1013.46
2017-03-23T02:29:35.084Z,1013.48
2017-03-23T02:30:15.809Z,1013.5
2017-03-23T02:30:56.422Z,1013.46
2017-03-23T02:31:37.101Z,1013.43
2017-03-23T02:32:17.785Z,1013.43
2017-03-23T02:32:58.470Z,1013.42
2017-03-23T02:33:39.144Z,1013.46
2017-03-23T02:34:19.808Z,1013.41
2017-03-23T02:35:00.460Z,1013.42
2017-03-23T02:35:41.106Z,1013.45
2017-03-23T02:36:21.773Z,1013.41
2017-03-23T02:37:02.498Z,1013.37
2017-03-23T02:37:43.163Z,1013.41
2017-03-23T02:38:23.806Z,1013.39
2017-03-23T02:39:04.490Z,1013.36
2017-03-23T02:39:45.115Z,1013.36
2017-03-23T02:40:25.733Z,1013.36
2017-03-23T02:41:06.441Z,1013.43
2017-03-23T02:41:47.120Z,1013.35
2017-03-23T02:42:27.793Z,1013.37
2017-03-23T02:43:08.454Z,1013.36
2017-03-23T02:43:49.075Z,1013.41
2017-03-23T02:44:29.783Z,1013.41
2017-03-23T02:45:10.385Z,1013.39
2017-03-23T02:45:51.033Z,1013.39
2017-03-23T02:46:31.695Z,1013.37
2017-03-23T02:47:12.297Z,1013.38
2017-03-23T02:47:52.961Z,1013.39
2017-03-23T02:48:33.642Z,1013.37
2017-03-23T02:49:14.412Z,1013.42
2017-03-23T02:49:55.064Z,1013.4
2017-03-23T02:50:35.705Z,1013.39
2017-03-23T02:51:16.361Z,1013.39
2017-03-23T02:51:57.037Z,1013.34
2017-03-23T02:52:37.670Z,1013.4
2017-03-23T02:53:18.314Z,1013.39
2017-03-23T02:53:58.987Z,1013.43
2017-03-23T02:54:39.668Z,1013.4
2017-03-23T02:55:20.289Z,1013.47
2017-03-23T02:56:00.940Z,1013.46
2017-03-23T02:56:41.600Z,1013.42
2017-03-23T02:57:22.227Z,1013.41
2017-03-23T02:58:02.986Z,1013.38
2017-03-23T02:58:43.663Z,1013.35
2017-03-23T02:59:24.460Z,1013.35
2017-03-23T03:00:05.102Z,1013.36
2017-03-23T03:00:45.787Z,1013.33
2017-03-23T03:01:26.480Z,1013.36
2017-03-23T03:02:07.188Z,1013.33
2017-03-23T03:02:47.750Z,1013.36
2017-03-23T03:03:28.463Z,1013.33
2017-03-23T03:04:09.119Z,1013.32
2017-03-23T03:04:49.752Z,1013.32
2017-03-23T03:05:30.361Z,1013.34
2017-03-23T03:06:11.017Z,1013.29
2017-03-23T03:06:51.690Z,1013.28
2017-03-23T03:07:32.353Z,1013.32
2017-03-23T03:08:13.037Z,1013.29
2017-03-23T03:08:53.739Z,1013.28
2017-03-23T03:09:34.308Z,1013.26
2017-03-23T03:10:14.944Z,1013.33
2017-03-23T03:10:55.620Z,1013.28
2017-03-23T03:11:36.302Z,1013.25
2017-03-23T03:12:17.029Z,1013.27
2017-03-23T03:12:57.682Z,1013.28
2017-03-23T03:13:38.411Z,1013.26
2017-03-23T03:14:19.136Z,1013.27
2017-03-23T03:14:59.818Z,1013.27
2017-03-23T03:15:40.478Z,1013.28
2017-03-23T03:16:21.175Z,1013.27
2017-03-23T03:17:01.867Z,1013.24
2017-03-23T03:17:42.512Z,1013.2
2017-03-23T03:18:23.194Z,1013.24
2017-03-23T03:19:03.868Z,1013.22
2017-03-23T03:19:44.575Z,1013.25
2017-03-23T03:20:25.228Z,1013.24
2017-03-23T03:21:05.904Z,1013.33
2017-03-23T03:21:46.679Z,1013.33
2017-03-23T03:22:27.355Z,1013.36
2017-03-23T03:23:07.994Z,1013.4
2017-03-23T03:23:48.626Z,1013.47
2017-03-23T03:24:29.423Z,1013.49
2017-03-23T03:25:10.072Z,1013.51
2017-03-23T03:25:50.694Z,1013.53
2017-03-23T03:26:31.352Z,1013.53
2017-03-23T03:27:12.108Z,1013.51
2017-03-23T03:27:52.699Z,1013.54
2017-03-23T03:28:33.376Z,1013.57
2017-03-23T03:29:14.078Z,1013.54
2017-03-23T03:29:54.741Z,1013.52
2017-03-23T03:30:35.435Z,1013.54
2017-03-23T03:31:16.086Z,1013.57
2017-03-23T03:31:56.693Z,1013.6
2017-03-23T03:32:37.390Z,1013.6
2017-03-23T03:33:18.046Z,1013.62
2017-03-23T03:33:58.703Z,1013.6
2017-03-23T03:34:39.497Z,1013.59
2017-03-23T03:35:20.226Z,1013.57
2017-03-23T03:36:00.855Z,1013.54
2017-03-23T03:36:41.549Z,1013.6
2017-03-23T03:37:22.235Z,1013.56
2017-03-23T03:38:02.868Z,1013.55
2017-03-23T03:38:43.491Z,1013.55
2017-03-23T03:39:24.161Z,1013.59
2017-03-23T03:40:04.778Z,1013.53
2017-03-23T03:40:45.415Z,1013.58
2017-03-23T03:41:26.051Z,1013.56
2017-03-23T03:42:06.708Z,1013.51
2017-03-23T03:42:47.382Z,1013.53
2017-03-23T03:43:27.993Z,1013.51
2017-03-23T03:44:08.701Z,1013.47
2017-03-23T03:44:49.361Z,1013.47
2017-03-23T03:45:29.992Z,1013.5
2017-03-23T03:46:10.607Z,1013.46
2017-03-23T03:46:51.285Z,1013.46
2017-03-23T03:47:31.880Z,1013.41
2017-03-23T03:48:12.503Z,1013.43
2017-03-23T03:48:53.136Z,1013.42
2017-03-23T03:49:33.817Z,1013.39
2017-03-23T03:50:14.480Z,1013.43
2017-03-23T03:50:55.195Z,1013.42
2017-03-23T03:51:35.855Z,1013.42
2017-03-23T03:52:16.589Z,1013.44
2017-03-23T03:52:57.217Z,1013.41
2017-03-23T03:53:37.850Z,1013.36
2017-03-23T03:54:18.530Z,1013.35
2017-03-23T03:54:59.159Z,1013.33
2017-03-23T03:55:39.851Z,1013.37
2017-03-23T03:56:20.700Z,1013.33
2017-03-23T03:57:01.441Z,1013.32
2017-03-23T03:57:42.001Z,1013.34
2017-03-23T03:58:22.651Z,1013.32
2017-03-23T03:59:03.338Z,1013.31
2017-03-23T03:59:44.049Z,1013.24
2017-03-23T04:00:24.700Z,1013.31
2017-03-23T04:01:05.311Z,1013.28
2017-03-23T04:01:45.962Z,1013.29
2017-03-23T04:02:26.649Z,1013.32
2017-03-23T04:03:07.323Z,1013.28
2017-03-23T04:03:48.047Z,1013.33
2017-03-23T04:04:28.681Z,1013.33
2017-03-23T04:05:09.428Z,1013.3
2017-03-23T04:05:50.128Z,1013.36
2017-03-23T04:06:30.835Z,1013.4
2017-03-23T04:07:11.525Z,1013.38
2017-03-23T04:07:52.171Z,1013.35
2017-03-23T04:08:32.860Z,1013.46
2017-03-23T04:09:13.571Z,1013.49
2017-03-23T04:09:54.184Z,1013.5
2017-03-23T04:10:34.854Z,1013.53
2017-03-23T04:11:15.474Z,1013.5
2017-03-23T04:11:56.155Z,1013.49
2017-03-23T04:12:36.903Z,1013.57
2017-03-23T04:13:17.513Z,1013.57
2017-03-23T04:13:58.196Z,1013.58
2017-03-23T04:14:38.927Z,1013.55
2017-03-23T04:15:19.595Z,1013.53
2017-03-23T04:16:00.264Z,1013.47
2017-03-23T04:16:40.916Z,1013.48
2017-03-23T04:17:21.588Z,1013.5
2017-03-23T04:18:02.330Z,1013.43
2017-03-23T04:18:42.976Z,1013.48
2017-03-23T04:19:23.641Z,1013.49
2017-03-23T04:20:04.397Z,1013.49
2017-03-23T04:20:45.032Z,1013.52
2017-03-23T04:21:25.671Z,1013.51
2017-03-23T04:22:06.409Z,1013.51
2017-03-23T04:22:47.144Z,1013.55
2017-03-23T04:23:27.962Z,1013.52
2017-03-23T04:24:08.580Z,1013.53
2017-03-23T04:24:49.263Z,1013.54
2017-03-23T04:25:29.965Z,1013.5
2017-03-23T04:26:10.671Z,1013.54
2017-03-23T04:26:51.347Z,1013.49
2017-03-23T04:27:32.005Z,1013.37
2017-03-23T04:28:12.600Z,1013.5
2017-03-23T04:28:53.240Z,1013.53
2017-03-23T04:29:33.920Z,1013.51
2017-03-23T04:30:14.596Z,1013.52
2017-03-23T04:30:55.294Z,1013.54
2017-03-23T04:31:35.959Z,1013.48
2017-03-23T04:32:16.634Z,1013.6
2017-03-23T04:32:57.310Z,1013.53
2017-03-23T04:33:37.986Z,1013.53
2017-03-23T04:34:18.619Z,1013.59
2017-03-23T04:34:59.285Z,1013.62
2017-03-23T04:35:40.026Z,1013.61
2017-03-23T04:36:20.705Z,1013.59
2017-03-23T04:37:01.392Z,1013.5
2017-03-23T04:37:42.027Z,1013.57
2017-03-23T04:38:22.641Z,1013.54
2017-03-23T04:39:03.342Z,1013.49
2017-03-23T04:39:43.937Z,1013.53
2017-03-23T04:40:24.692Z,1013.53
2017-03-23T04:41:05.464Z,1013.56
2017-03-23T04:41:46.237Z,1013.56
2017-03-23T04:42:26.902Z,1013.55
2017-03-23T04:43:07.616Z,1013.58
2017-03-23T04:43:48.336Z,1013.57
2017-03-23T04:44:29.038Z,1013.56
2017-03-23T04:45:09.725Z,1013.61
2017-03-23T04:45:50.404Z,1013.62
2017-03-23T04:46:31.078Z,1013.61
2017-03-23T04:47:11.778Z,1013.62
2017-03-23T04:47:52.404Z,1013.6
2017-03-23T04:48:33.033Z,1013.58
2017-03-23T04:49:13.709Z,1013.54
2017-03-23T04:49:54.338Z,1013.55
2017-03-23T04:50:35.020Z,1013.54
2017-03-23T04:51:15.700Z,1013.6
2017-03-23T04:51:56.427Z,1013.57
2017-03-23T04:52:37.151Z,1013.58
2017-03-23T04:53:17.797Z,1013.6
2017-03-23T04:53:58.432Z,1013.59
2017-03-23T04:54:39.037Z,1013.59
2017-03-23T04:55:19.658Z,1013.55
2017-03-23T04:56:00.425Z,1013.52
2017-03-23T04:56:41.099Z,1013.48
2017-03-23T04:57:21.776Z,1013.51
2017-03-23T04:58:02.394Z,1013.54
2017-03-23T04:58:43.041Z,1013.51
2017-03-23T04:59:23.719Z,1013.54
2017-03-23T05:00:04.365Z,1013.41
2017-03-23T05:00:45.133Z,1013.54
2017-03-23T05:01:25.859Z,1013.43
2017-03-23T05:02:06.493Z,1013.51
2017-03-23T05:02:47.118Z,1013.53
2017-03-23T05:03:27.807Z,1013.49
2017-03-23T05:04:08.418Z,1013.5
2017-03-23T05:04:49.070Z,1013.49
2017-03-23T05:05:29.883Z,1013.47
2017-03-23T05:07:58.111Z,1013.6
2017-03-23T05:08:38.843Z,1013.61
2017-03-23T05:09:19.546Z,1013.61
2017-03-23T05:10:00.159Z,1013.64
2017-03-23T05:10:40.930Z,1013.63
2017-03-23T05:11:21.833Z,1013.65
2017-03-23T05:12:02.430Z,1013.67
2017-03-23T05:12:43.172Z,1013.65
2017-03-23T05:13:23.846Z,1013.63
2017-03-23T05:14:04.534Z,1013.66
2017-03-23T05:14:45.444Z,1013.67
2017-03-23T05:15:26.210Z,1013.72
2017-03-23T05:16:06.896Z,1013.71
2017-03-23T05:16:47.631Z,1013.73
2017-03-23T05:17:28.564Z,1013.79
2017-03-23T05:18:09.186Z,1013.79
2017-03-23T05:18:49.955Z,1013.81
2017-03-23T05:19:30.616Z,1013.76
2017-03-23T05:20:11.378Z,1013.83
2017-03-23T05:20:52.018Z,1013.79
2017-03-23T05:21:32.687Z,1013.8
2017-03-23T05:22:13.381Z,1013.79
2017-03-23T05:22:53.997Z,1013.77
2017-03-23T05:23:34.668Z,1013.75
2017-03-23T05:24:15.302Z,1013.77
2017-03-23T05:24:55.994Z,1013.77
2017-03-23T05:25:36.657Z,1013.78
2017-03-23T05:26:17.382Z,1013.77
2017-03-23T05:26:58.125Z,1013.76
2017-03-23T05:27:38.833Z,1013.74
2017-03-23T05:28:19.454Z,1013.74
2017-03-23T05:29:00.191Z,1013.77
2017-03-23T05:29:40.792Z,1013.78
2017-03-23T05:30:21.524Z,1013.76
2017-03-23T05:31:02.294Z,1013.77
2017-03-23T05:33:15.562Z,1013.77
2017-03-23T05:33:56.281Z,1013.82
2017-03-23T05:34:36.922Z,1013.77
2017-03-23T05:35:17.618Z,1013.8
2017-03-23T05:35:58.547Z,1013.82
2017-03-23T05:36:39.231Z,1013.81
2017-03-23T05:37:19.995Z,1013.82
2017-03-23T05:38:00.690Z,1013.8
2017-03-23T05:38:41.440Z,1013.82
2017-03-23T05:39:22.128Z,1013.79
2017-03-23T05:40:02.807Z,1013.84
2017-03-23T05:40:43.575Z,1013.81
2017-03-23T05:41:24.303Z,1013.77
2017-03-23T05:42:04.941Z,1013.77
2017-03-23T05:42:45.737Z,1013.78
2017-03-23T05:43:26.522Z,1013.81
2017-03-23T05:44:07.241Z,1013.82
2017-03-23T05:44:47.899Z,1013.87
2017-03-23T05:45:28.687Z,1013.86
2017-03-23T05:46:09.407Z,1013.85
2017-03-23T05:46:50.142Z,1013.88
2017-03-23T05:47:30.817Z,1013.85
2017-03-23T05:48:11.510Z,1013.82
2017-03-23T05:48:52.181Z,1013.86
2017-03-23T05:49:33.034Z,1013.86
2017-03-23T05:50:13.678Z,1013.87
2017-03-23T05:50:54.472Z,1013.89
2017-03-23T05:51:35.315Z,1013.89
2017-03-23T05:52:16.049Z,1013.93
2017-03-23T05:52:56.713Z,1013.85
2017-03-23T05:54:55.283Z,1013.88
2017-03-23T05:55:35.921Z,1013.92
2017-03-23T05:56:16.590Z,1013.92
2017-03-23T05:56:57.346Z,1013.93
2017-03-23T05:57:38.070Z,1013.9
2017-03-23T05:58:18.811Z,1013.91
2017-03-23T05:58:59.463Z,1013.91
2017-03-23T05:59:40.220Z,1013.92
2017-03-23T06:00:20.942Z,1013.95
2017-03-23T06:01:01.597Z,1013.93
2017-03-23T06:01:42.206Z,1013.92
2017-03-23T06:02:22.900Z,1013.91
2017-03-23T06:03:03.574Z,1013.88
2017-03-23T06:03:44.429Z,1013.95
2017-03-23T06:04:25.096Z,1013.9
2017-03-23T06:05:05.946Z,1013.97
2017-03-23T06:05:46.649Z,1013.95
2017-03-23T06:06:27.403Z,1013.96
2017-03-23T06:07:08.019Z,1013.96
2017-03-23T06:07:48.722Z,1014.01
2017-03-23T06:08:29.464Z,1014.04
2017-03-23T06:09:10.196Z,1014.01
2017-03-23T06:09:50.878Z,1014.01
2017-03-23T06:10:31.674Z,1014.06
2017-03-23T06:11:12.344Z,1014.06
2017-03-23T06:11:53.035Z,1014.06
2017-03-23T06:12:33.710Z,1014.05
2017-03-23T06:13:14.391Z,1014.07
2017-03-23T06:13:55.094Z,1014.06
2017-03-23T06:14:35.757Z,1014.07
2017-03-23T06:15:16.487Z,1014.11
2017-03-23T06:15:57.161Z,1014.11
2017-03-23T06:16:37.796Z,1014.13
2017-03-23T06:17:18.521Z,1014.11
2017-03-23T06:17:59.242Z,1014.09
2017-03-23T06:18:39.921Z,1014.15
2017-03-23T06:19:20.650Z,1014.1
2017-03-23T06:20:01.373Z,1014.12
2017-03-23T06:20:42.044Z,1014.07
2017-03-23T06:21:22.774Z,1014.11
2017-03-23T06:22:03.508Z,1014.1
2017-03-23T06:22:44.183Z,1014.14
2017-03-23T06:23:24.904Z,1014.12
2017-03-23T06:24:05.654Z,1014.11
2017-03-23T06:24:46.420Z,1014.12
2017-03-23T06:25:27.134Z,1014.16
2017-03-23T06:26:07.847Z,1014.15
2017-03-23T06:26:48.626Z,1014.14
2017-03-23T06:27:29.345Z,1014.13
2017-03-23T06:28:10.069Z,1014.15
2017-03-23T06:28:50.781Z,1014.09
2017-03-23T06:29:31.524Z,1014.11
2017-03-23T06:30:12.257Z,1014.12
2017-03-23T06:30:52.896Z,1014.13
2017-03-23T06:31:33.536Z,1014.18
2017-03-23T06:32:14.464Z,1014.13
2017-03-23T06:32:55.159Z,1014.15
2017-03-23T06:33:35.904Z,1014.17
2017-03-23T06:34:16.571Z,1014.18
2017-03-23T06:34:57.242Z,1014.2
2017-03-23T06:35:37.900Z,1014.14
2017-03-23T06:36:18.562Z,1014.2
2017-03-23T06:36:59.344Z,1014.23
2017-03-23T06:37:40.087Z,1014.18
2017-03-23T06:38:20.929Z,1014.23
2017-03-23T06:39:01.581Z,1014.22
2017-03-23T06:39:42.250Z,1014.22
2017-03-23T06:40:22.992Z,1014.23
2017-03-23T06:41:03.825Z,1014.17
2017-03-23T06:41:44.679Z,1014.17
2017-03-23T06:42:25.372Z,1014.2
2017-03-23T06:43:06.205Z,1014.18
2017-03-23T06:43:46.749Z,1014.21
2017-03-23T06:44:27.432Z,1014.21
2017-03-23T06:45:08.080Z,1014.22
2017-03-23T06:45:48.759Z,1014.19
2017-03-23T06:46:29.472Z,1014.21
2017-03-23T06:47:10.196Z,1014.23
2017-03-23T06:47:50.987Z,1014.26
2017-03-23T06:48:31.706Z,1014.26
2017-03-23T06:49:12.447Z,1014.25
2017-03-23T06:49:53.210Z,1014.21
2017-03-23T06:50:33.934Z,1014.21
2017-03-23T06:51:14.637Z,1014.26
2017-03-23T06:51:55.305Z,1014.26
2017-03-23T06:52:36.049Z,1014.25
2017-03-23T06:53:16.834Z,1014.31
2017-03-23T06:53:57.510Z,1014.25
2017-03-23T06:54:38.180Z,1014.3
2017-03-23T06:55:18.867Z,1014.26
2017-03-23T06:55:59.563Z,1014.31
2017-03-23T06:56:40.377Z,1014.31
2017-03-23T06:57:21.193Z,1014.35
2017-03-23T06:58:01.896Z,1014.34
2017-03-23T06:58:42.703Z,1014.35
2017-03-23T06:59:23.471Z,1014.36
2017-03-23T07:00:04.303Z,1014.37
2017-03-23T07:00:44.950Z,1014.34
2017-03-23T07:01:25.666Z,1014.39
2017-03-23T07:02:06.249Z,1014.36
2017-03-23T07:02:46.912Z,1014.41
2017-03-23T07:03:27.568Z,1014.41
2017-03-23T07:04:08.186Z,1014.4
2017-03-23T07:04:49.201Z,1014.36
2017-03-23T07:05:29.944Z,1014.41
2017-03-23T07:06:10.576Z,1014.43
2017-03-23T07:06:51.281Z,1014.43
2017-03-23T07:07:32.075Z,1014.41
2017-03-23T07:08:12.919Z,1014.4
2017-03-23T07:08:53.632Z,1014.38
2017-03-23T07:09:34.545Z,1014.36
2017-03-23T07:10:15.208Z,1014.4
2017-03-23T07:10:55.947Z,1014.43
2017-03-23T07:11:36.666Z,1014.47
2017-03-23T07:12:17.758Z,1014.41
2017-03-23T07:12:58.443Z,1014.41
2017-03-23T07:13:39.152Z,1014.43
2017-03-23T07:14:19.780Z,1014.45
2017-03-23T07:15:00.682Z,1014.42
2017-03-23T07:15:41.373Z,1014.46
2017-03-23T07:16:22.039Z,1014.42
2017-03-23T07:17:02.699Z,1014.48
2017-03-23T07:17:43.362Z,1014.44
2017-03-23T07:18:24.133Z,1014.46
2017-03-23T07:19:04.859Z,1014.45
2017-03-23T07:19:45.590Z,1014.45
2017-03-23T07:20:26.257Z,1014.46
2017-03-23T07:21:06.870Z,1014.47
2017-03-23T07:21:47.542Z,1014.46
2017-03-23T07:22:28.203Z,1014.49
2017-03-23T07:23:08.892Z,1014.49
2017-03-23T07:23:49.600Z,1014.45
2017-03-23T07:24:30.256Z,1014.5
2017-03-23T07:25:10.979Z,1014.49
2017-03-23T07:25:51.661Z,1014.49
2017-03-23T07:26:32.484Z,1014.52
2017-03-23T07:27:13.243Z,1014.49
2017-03-23T07:27:53.861Z,1014.5
2017-03-23T07:28:34.566Z,1014.53
2017-03-23T07:29:15.352Z,1014.51
2017-03-23T07:29:56.063Z,1014.5
2017-03-23T07:30:36.747Z,1014.48
2017-03-23T07:31:17.410Z,1014.46
2017-03-23T07:31:58.126Z,1014.49
2017-03-23T07:32:38.811Z,1014.51
2017-03-23T07:33:19.463Z,1014.51
2017-03-23T07:34:00.130Z,1014.47
2017-03-23T07:34:40.815Z,1014.51
2017-03-23T07:35:21.532Z,1014.52
2017-03-23T07:36:02.198Z,1014.49
2017-03-23T07:36:42.840Z,1014.5
2017-03-23T07:37:23.725Z,1014.48
2017-03-23T07:38:04.482Z,1014.49
2017-03-23T07:38:45.158Z,1014.56
2017-03-23T07:39:25.930Z,1014.53
2017-03-23T07:40:06.607Z,1014.51
2017-03-23T07:40:47.289Z,1014.51
2017-03-23T07:41:27.961Z,1014.53
2017-03-23T07:42:08.751Z,1014.51
2017-03-23T07:42:49.545Z,1014.49
2017-03-23T07:43:31.036Z,1014.53
2017-03-23T07:44:11.807Z,1014.5
2017-03-23T07:44:53.265Z,1014.51
2017-03-23T07:45:34.133Z,1014.49
2017-03-23T07:46:15.172Z,1014.46
2017-03-23T07:46:55.897Z,1014.52
2017-03-23T07:47:36.664Z,1014.51
2017-03-23T07:48:17.415Z,1014.53
2017-03-23T07:48:58.137Z,1014.54
2017-03-23T07:49:38.799Z,1014.58
2017-03-23T07:50:19.498Z,1014.49
2017-03-23T07:51:00.176Z,1014.53
2017-03-23T07:51:40.853Z,1014.48
2017-03-23T07:52:21.600Z,1014.51
2017-03-23T07:53:02.199Z,1014.46
2017-03-23T07:53:43.046Z,1014.49
2017-03-23T07:54:23.756Z,1014.54
2017-03-23T07:55:04.441Z,1014.54
2017-03-23T07:55:45.186Z,1014.49
2017-03-23T07:56:25.874Z,1014.51
2017-03-23T07:57:06.535Z,1014.51
2017-03-23T07:57:47.244Z,1014.54
2017-03-23T07:58:27.966Z,1014.52
2017-03-23T07:59:08.719Z,1014.54
2017-03-23T07:59:49.409Z,1014.5
2017-03-23T08:00:30.060Z,1014.52
2017-03-23T08:01:10.738Z,1014.54
2017-03-23T08:01:51.408Z,1014.48
2017-03-23T08:02:32.095Z,1014.51
2017-03-23T08:03:12.775Z,1014.48
2017-03-23T08:03:53.826Z,1014.49
2017-03-23T08:04:34.489Z,1014.54
2017-03-23T08:05:15.255Z,1014.5
2017-03-23T08:05:56.017Z,1014.5
2017-03-23T08:06:36.714Z,1014.5
2017-03-23T08:07:17.424Z,1014.47
2017-03-23T08:07:58.141Z,1014.54
2017-03-23T08:08:38.834Z,1014.53
2017-03-23T08:09:19.533Z,1014.53
2017-03-23T08:10:00.244Z,1014.52
2017-03-23T08:10:40.875Z,1014.53
2017-03-23T08:11:21.556Z,1014.55
2017-03-23T08:12:02.191Z,1014.56
2017-03-23T08:12:42.931Z,1014.58
2017-03-23T08:13:23.508Z,1014.59
2017-03-23T08:14:04.337Z,1014.55
2017-03-23T08:14:45.066Z,1014.56
2017-03-23T08:15:25.722Z,1014.55
2017-03-23T08:16:06.403Z,1014.55
2017-03-23T08:16:47.169Z,1014.54
2017-03-23T08:17:27.879Z,1014.55
2017-03-23T08:18:08.531Z,1014.58
2017-03-23T08:18:49.207Z,1014.53
2017-03-23T08:19:29.826Z,1014.54